sensor_id;sensor_type;location;lat;lon;timestamp;pressure;altitude;pressure_sealevel;temperature;humidity
14790;BME280;7486;51.010;10.366;2023-05-22T00:01:05;97791.31;;;11.62;67.63
14790;BME280;7486;51.010;10.366;2023-05-22T00:03:51;98102.56;;;13.45;68.02
14790;BME280;7486;51.010;10.366;2023-05-22T00:06:40;97989.72;;;12.81;67.97
14790;BME280;7486;51.010;10.366;2023-05-22T00:09:26;98124.97;;;13.67;67.80
14790;BME280;7486;51.010;10.366;2023-05-22T00:12:11;98129.16;;;13.63;68.60
14790;BME280;7486;51.010;10.366;2023-05-22T00:14:57;97986.22;;;12.69;68.22
14790;BME280;7486;51.010;10.366;2023-05-22T00:17:42;98089.97;;;13.22;69.07
14790;BME280;7486;51.010;10.366;2023-05-22T00:20:28;98048.25;;;12.93;70.05
14790;BME280;7486;51.010;10.366;2023-05-22T00:23:13;98018.94;;;12.69;71.83
14790;BME280;7486;51.010;10.366;2023-05-22T00:25:59;98128.38;;;13.26;72.40
14790;BME280;7486;51.010;10.366;2023-05-22T00:28:45;98120.50;;;13.19;72.96
14790;BME280;7486;51.010;10.366;2023-05-22T00:31:32;97988.09;;;12.32;73.38
14790;BME280;7486;51.010;10.366;2023-05-22T00:34:17;97945.19;;;11.81;74.13
14790;BME280;7486;51.010;10.366;2023-05-22T00:37:03;97846.84;;;11.39;73.61
14790;BME280;7486;51.010;10.366;2023-05-22T00:39:48;97849.56;;;11.51;72.95
14790;BME280;7486;51.010;10.366;2023-05-22T00:42:34;98033.25;;;12.68;72.67
14790;BME280;7486;51.010;10.366;2023-05-22T00:45:19;98071.47;;;12.86;73.65
14790;BME280;7486;51.010;10.366;2023-05-22T00:48:05;98095.38;;;13.04;72.40
14790;BME280;7486;51.010;10.366;2023-05-22T00:50:53;97919.69;;;11.80;72.48
14790;BME280;7486;51.010;10.366;2023-05-22T00:53:38;98074.25;;;12.54;74.14
14790;BME280;7486;51.010;10.366;2023-05-22T00:56:24;98125.19;;;12.88;74.04
14790;BME280;7486;51.010;10.366;2023-05-22T00:59:10;97964.56;;;11.99;73.38
14790;BME280;7486;51.010;10.366;2023-05-22T01:01:56;98042.63;;;12.53;72.85
14790;BME280;7486;51.010;10.366;2023-05-22T01:04:46;98066.59;;;12.64;73.43
14790;BME280;7486;51.010;10.366;2023-05-22T01:07:32;98147.09;;;13.19;73.34
14790;BME280;7486;51.010;10.366;2023-05-22T01:10:18;98146.88;;;13.21;72.86
14790;BME280;7486;51.010;10.366;2023-05-22T01:16:31;97674.13;;;10.20;73.15
14790;BME280;7486;51.010;10.366;2023-05-22T01:22:52;98012.75;;;12.21;72.51
14790;BME280;7486;51.010;10.366;2023-05-22T01:31:58;98046.53;;;12.32;73.73
14790;BME280;7486;51.010;10.366;2023-05-22T01:34:46;98157.53;;;12.85;74.00
14790;BME280;7486;51.010;10.366;2023-05-22T01:37:35;98094.63;;;12.42;74.05
14790;BME280;7486;51.010;10.366;2023-05-22T01:40:21;98126.13;;;12.63;73.68
14790;BME280;7486;51.010;10.366;2023-05-22T01:43:07;98076.50;;;12.39;73.23
14790;BME280;7486;51.010;10.366;2023-05-22T01:45:53;97882.78;;;11.10;73.43
14790;BME280;7486;51.010;10.366;2023-05-22T01:48:38;98066.16;;;12.31;73.54
14790;BME280;7486;51.010;10.366;2023-05-22T02:00:44;97998.69;;;11.53;75.29
14790;BME280;7486;51.010;10.366;2023-05-22T02:03:32;98105.41;;;12.29;75.91
14790;BME280;7486;51.010;10.366;2023-05-22T02:06:19;98048.66;;;12.05;74.74
14790;BME280;7486;51.010;10.366;2023-05-22T02:09:05;98062.97;;;12.22;74.06
14790;BME280;7486;51.010;10.366;2023-05-22T02:11:57;98160.88;;;12.80;73.82
14790;BME280;7486;51.010;10.366;2023-05-22T02:14:45;98111.88;;;12.33;73.84
14790;BME280;7486;51.010;10.366;2023-05-22T02:17:30;98089.03;;;12.32;73.99
14790;BME280;7486;51.010;10.366;2023-05-22T02:20:20;97975.59;;;11.60;73.14
14790;BME280;7486;51.010;10.366;2023-05-22T02:23:06;98123.41;;;12.45;73.16
14790;BME280;7486;51.010;10.366;2023-05-22T02:25:51;98154.16;;;12.59;73.08
14790;BME280;7486;51.010;10.366;2023-05-22T02:28:36;98080.72;;;12.04;72.98
14790;BME280;7486;51.010;10.366;2023-05-22T02:31:24;98059.78;;;11.71;75.04
14790;BME280;7486;51.010;10.366;2023-05-22T02:34:09;98137.81;;;12.13;76.09
14790;BME280;7486;51.010;10.366;2023-05-22T02:36:54;97959.94;;;11.02;76.77
14790;BME280;7486;51.010;10.366;2023-05-22T02:39:39;98027.63;;;11.30;78.00
14790;BME280;7486;51.010;10.366;2023-05-22T02:42:25;98041.00;;;11.41;78.00
14790;BME280;7486;51.010;10.366;2023-05-22T02:45:11;98064.38;;;11.57;77.89
14790;BME280;7486;51.010;10.366;2023-05-22T02:47:58;98038.19;;;11.36;78.04
14790;BME280;7486;51.010;10.366;2023-05-22T02:50:44;98012.53;;;11.30;78.04
14790;BME280;7486;51.010;10.366;2023-05-22T02:53:29;98070.59;;;11.69;77.87
14790;BME280;7486;51.010;10.366;2023-05-22T02:56:14;98051.34;;;11.49;77.65
14790;BME280;7486;51.010;10.366;2023-05-22T02:59:00;98140.91;;;12.10;77.64
14790;BME280;7486;51.010;10.366;2023-05-22T03:01:47;98063.09;;;11.66;77.03
14790;BME280;7486;51.010;10.366;2023-05-22T03:04:33;98017.88;;;11.48;76.46
14790;BME280;7486;51.010;10.366;2023-05-22T03:07:19;97856.34;;;10.54;75.49
14790;BME280;7486;51.010;10.366;2023-05-22T03:10:05;98042.38;;;11.75;75.59
14790;BME280;7486;51.010;10.366;2023-05-22T03:12:51;97933.69;;;10.94;75.41
14790;BME280;7486;51.010;10.366;2023-05-22T03:15:37;98097.22;;;12.06;75.33
14790;BME280;7486;51.010;10.366;2023-05-22T03:18:29;98049.88;;;11.60;76.95
14790;BME280;7486;51.010;10.366;2023-05-22T03:21:14;98052.09;;;11.63;76.90
14790;BME280;7486;51.010;10.366;2023-05-22T03:24:00;98004.53;;;11.37;76.74
14790;BME280;7486;51.010;10.366;2023-05-22T03:26:45;97941.59;;;11.01;76.22
14790;BME280;7486;51.010;10.366;2023-05-22T03:29:37;98093.44;;;11.95;75.61
14790;BME280;7486;51.010;10.366;2023-05-22T03:32:23;98033.97;;;11.53;74.89
14790;BME280;7486;51.010;10.366;2023-05-22T03:35:09;97985.47;;;11.21;75.00
14790;BME280;7486;51.010;10.366;2023-05-22T03:37:54;98033.81;;;11.48;75.84
14790;BME280;7486;51.010;10.366;2023-05-22T03:40:40;98045.38;;;11.60;76.29
14790;BME280;7486;51.010;10.366;2023-05-22T03:43:27;98079.66;;;11.87;75.66
14790;BME280;7486;51.010;10.366;2023-05-22T03:46:12;97949.88;;;11.11;74.85
14790;BME280;7486;51.010;10.366;2023-05-22T03:48:58;98087.88;;;11.79;76.77
14790;BME280;7486;51.010;10.366;2023-05-22T03:51:43;98108.34;;;11.96;76.99
14790;BME280;7486;51.010;10.366;2023-05-22T03:54:29;98088.50;;;11.99;75.79
14790;BME280;7486;51.010;10.366;2023-05-22T03:57:14;98045.03;;;11.75;75.58
14790;BME280;7486;51.010;10.366;2023-05-22T04:00:00;98004.91;;;11.40;75.39
14790;BME280;7486;51.010;10.366;2023-05-22T04:02:45;98055.13;;;11.66;75.14
14790;BME280;7486;51.010;10.366;2023-05-22T04:05:31;98014.59;;;11.53;75.10
14790;BME280;7486;51.010;10.366;2023-05-22T04:08:17;97932.63;;;11.02;76.51
14790;BME280;7486;51.010;10.366;2023-05-22T04:11:03;97979.22;;;11.16;77.79
14790;BME280;7486;51.010;10.366;2023-05-22T04:13:49;97998.00;;;11.39;77.70
14790;BME280;7486;51.010;10.366;2023-05-22T04:16:34;98121.03;;;12.37;77.53
14790;BME280;7486;51.010;10.366;2023-05-22T04:19:22;98051.41;;;11.92;77.38
14790;BME280;7486;51.010;10.366;2023-05-22T04:22:08;97886.75;;;10.77;78.34
14790;BME280;7486;51.010;10.366;2023-05-22T04:24:53;97995.97;;;11.35;79.28
14790;BME280;7486;51.010;10.366;2023-05-22T04:27:39;98018.41;;;11.63;79.84
14790;BME280;7486;51.010;10.366;2023-05-22T04:30:24;98085.75;;;12.30;78.84
14790;BME280;7486;51.010;10.366;2023-05-22T04:33:12;98094.94;;;12.52;78.17
14790;BME280;7486;51.010;10.366;2023-05-22T04:35:57;98112.47;;;12.35;79.36
14790;BME280;7486;51.010;10.366;2023-05-22T04:38:45;97996.31;;;11.69;79.73
14790;BME280;7486;51.010;10.366;2023-05-22T04:41:30;98075.78;;;12.07;80.60
14790;BME280;7486;51.010;10.366;2023-05-22T04:44:16;97897.69;;;11.11;79.32
14790;BME280;7486;51.010;10.366;2023-05-22T04:47:02;98131.94;;;12.72;79.43
14790;BME280;7486;51.010;10.366;2023-05-22T04:49:51;98101.88;;;12.90;77.88
14790;BME280;7486;51.010;10.366;2023-05-22T04:52:36;97964.94;;;12.21;75.83
14790;BME280;7486;51.010;10.366;2023-05-22T04:55:21;97944.22;;;11.93;78.31
14790;BME280;7486;51.010;10.366;2023-05-22T04:58:07;98127.94;;;13.29;78.40
14790;BME280;7486;51.010;10.366;2023-05-22T05:00:53;98003.59;;;12.35;78.88
14790;BME280;7486;51.010;10.366;2023-05-22T05:03:38;98083.72;;;12.68;79.59
14790;BME280;7486;51.010;10.366;2023-05-22T05:06:24;98076.22;;;12.65;80.87
14790;BME280;7486;51.010;10.366;2023-05-22T05:09:10;98112.84;;;13.11;79.65
14790;BME280;7486;51.010;10.366;2023-05-22T05:11:55;97997.84;;;12.38;80.61
14790;BME280;7486;51.010;10.366;2023-05-22T05:14:40;98084.91;;;12.91;81.42
14790;BME280;7486;51.010;10.366;2023-05-22T05:17:27;98143.03;;;13.35;81.01
14790;BME280;7486;51.010;10.366;2023-05-22T05:20:13;97964.75;;;12.52;80.46
14790;BME280;7486;51.010;10.366;2023-05-22T05:22:58;97915.84;;;12.42;78.72
14790;BME280;7486;51.010;10.366;2023-05-22T05:25:44;98087.00;;;13.30;81.46
14790;BME280;7486;51.010;10.366;2023-05-22T05:28:29;97871.50;;;12.12;81.55
14790;BME280;7486;51.010;10.366;2023-05-22T05:31:14;98105.47;;;14.19;78.21
14790;BME280;7486;51.010;10.366;2023-05-22T05:34:08;97940.75;;;13.65;75.23
14790;BME280;7486;51.010;10.366;2023-05-22T05:37:23;98024.66;;;14.02;78.10
14790;BME280;7486;51.010;10.366;2023-05-22T05:40:10;98055.09;;;14.18;77.78
14790;BME280;7486;51.010;10.366;2023-05-22T05:43:00;98125.50;;;14.68;77.61
14790;BME280;7486;51.010;10.366;2023-05-22T05:45:46;98063.66;;;14.43;76.80
14790;BME280;7486;51.010;10.366;2023-05-22T05:48:33;98063.53;;;14.50;76.76
14790;BME280;7486;51.010;10.366;2023-05-22T05:51:18;98023.13;;;14.41;76.13
14790;BME280;7486;51.010;10.366;2023-05-22T05:54:04;98047.72;;;14.71;75.21
14790;BME280;7486;51.010;10.366;2023-05-22T05:56:49;98117.44;;;15.32;75.46
14790;BME280;7486;51.010;10.366;2023-05-22T05:59:35;98050.09;;;14.96;75.17
14790;BME280;7486;51.010;10.366;2023-05-22T06:02:53;98043.78;;;15.02;75.59
14790;BME280;7486;51.010;10.366;2023-05-22T06:06:14;98122.72;;;15.71;75.09
14790;BME280;7486;51.010;10.366;2023-05-22T06:09:19;97968.81;;;14.87;74.12
14790;BME280;7486;51.010;10.366;2023-05-22T06:12:24;98046.50;;;15.47;73.54
14790;BME280;7486;51.010;10.366;2023-05-22T06:15:10;97950.34;;;14.97;74.04
14790;BME280;7486;51.010;10.366;2023-05-22T06:17:55;97979.50;;;15.32;74.11
14790;BME280;7486;51.010;10.366;2023-05-22T06:20:41;98079.84;;;16.11;72.65
14790;BME280;7486;51.010;10.366;2023-05-22T06:23:26;98137.84;;;16.49;72.64
14790;BME280;7486;51.010;10.366;2023-05-22T06:26:13;98063.00;;;16.11;72.07
14790;BME280;7486;51.010;10.366;2023-05-22T06:29:00;98062.75;;;16.12;71.33
14790;BME280;7486;51.010;10.366;2023-05-22T06:31:48;98076.13;;;16.12;72.11
14790;BME280;7486;51.010;10.366;2023-05-22T06:34:36;97991.78;;;15.66;71.09
14790;BME280;7486;51.010;10.366;2023-05-22T06:37:21;98001.97;;;15.69;70.66
14790;BME280;7486;51.010;10.366;2023-05-22T06:40:07;98048.00;;;16.10;69.61
14790;BME280;7486;51.010;10.366;2023-05-22T06:43:22;98053.66;;;16.52;68.74
14790;BME280;7486;51.010;10.366;2023-05-22T06:46:15;98125.03;;;17.11;67.74
14790;BME280;7486;51.010;10.366;2023-05-22T06:49:09;98029.38;;;16.53;66.92
14790;BME280;7486;51.010;10.366;2023-05-22T06:52:03;98100.66;;;17.08;68.04
14790;BME280;7486;51.010;10.366;2023-05-22T06:54:49;97993.28;;;16.56;65.59
14790;BME280;7486;51.010;10.366;2023-05-22T06:57:35;97618.41;;;14.28;66.20
14790;BME280;7486;51.010;10.366;2023-05-22T07:00:22;98010.19;;;17.05;65.90
14790;BME280;7486;51.010;10.366;2023-05-22T07:03:30;97987.25;;;17.14;62.33
14790;BME280;7486;51.010;10.366;2023-05-22T07:06:54;98068.13;;;17.74;61.02
14790;BME280;7486;51.010;10.366;2023-05-22T07:09:41;97970.25;;;16.77;64.90
14790;BME280;7486;51.010;10.366;2023-05-22T07:12:26;98134.53;;;17.72;64.03
14790;BME280;7486;51.010;10.366;2023-05-22T07:15:12;97915.16;;;16.75;62.66
14790;BME280;7486;51.010;10.366;2023-05-22T07:18:03;98007.81;;;17.08;66.13
14790;BME280;7486;51.010;10.366;2023-05-22T07:20:48;98135.56;;;17.98;63.62
14790;BME280;7486;51.010;10.366;2023-05-22T07:23:37;97703.84;;;15.53;62.11
14790;BME280;7486;51.010;10.366;2023-05-22T07:26:22;97924.34;;;17.11;63.95
14790;BME280;7486;51.010;10.366;2023-05-22T07:29:18;98097.78;;;18.37;64.08
14790;BME280;7486;51.010;10.366;2023-05-22T07:32:09;98027.06;;;18.06;62.37
14790;BME280;7486;51.010;10.366;2023-05-22T07:34:55;98022.75;;;18.00;61.53
14790;BME280;7486;51.010;10.366;2023-05-22T07:37:41;97978.00;;;18.00;59.50
14790;BME280;7486;51.010;10.366;2023-05-22T07:40:27;98115.53;;;18.90;61.94
14790;BME280;7486;51.010;10.366;2023-05-22T07:43:13;98105.22;;;18.71;60.77
14790;BME280;7486;51.010;10.366;2023-05-22T07:45:58;98068.63;;;18.45;59.55
14790;BME280;7486;51.010;10.366;2023-05-22T07:48:48;98057.84;;;18.40;61.44
14790;BME280;7486;51.010;10.366;2023-05-22T07:51:34;98072.53;;;18.85;59.92
14790;BME280;7486;51.010;10.366;2023-05-22T07:54:20;98054.84;;;18.89;58.49
14790;BME280;7486;51.010;10.366;2023-05-22T07:57:08;98077.16;;;18.99;58.81
14790;BME280;7486;51.010;10.366;2023-05-22T07:59:56;98089.75;;;18.89;58.10
14790;BME280;7486;51.010;10.366;2023-05-22T08:02:42;98126.88;;;19.12;59.03
14790;BME280;7486;51.010;10.366;2023-05-22T08:05:28;98107.75;;;18.93;61.09
14790;BME280;7486;51.010;10.366;2023-05-22T08:08:14;98098.44;;;19.11;58.78
14790;BME280;7486;51.010;10.366;2023-05-22T08:10:59;98006.75;;;18.67;60.27
14790;BME280;7486;51.010;10.366;2023-05-22T08:13:48;97913.09;;;18.50;59.97
14790;BME280;7486;51.010;10.366;2023-05-22T08:16:34;98053.69;;;19.82;58.01
14790;BME280;7486;51.010;10.366;2023-05-22T08:19:20;98091.34;;;19.92;58.23
14790;BME280;7486;51.010;10.366;2023-05-22T08:22:05;98065.75;;;20.15;57.37
14790;BME280;7486;51.010;10.366;2023-05-22T08:24:51;97904.31;;;19.00;56.51
14790;BME280;7486;51.010;10.366;2023-05-22T08:27:37;98058.22;;;19.77;57.22
14790;BME280;7486;51.010;10.366;2023-05-22T08:30:22;98091.84;;;19.94;57.03
14790;BME280;7486;51.010;10.366;2023-05-22T08:33:08;98038.66;;;19.86;58.16
14790;BME280;7486;51.010;10.366;2023-05-22T08:35:54;97905.69;;;19.18;56.11
14790;BME280;7486;51.010;10.366;2023-05-22T08:38:40;97979.25;;;19.67;56.97
14790;BME280;7486;51.010;10.366;2023-05-22T08:41:26;97812.25;;;19.00;54.66
14790;BME280;7486;51.010;10.366;2023-05-22T08:44:12;98074.84;;;20.44;54.37
14790;BME280;7486;51.010;10.366;2023-05-22T08:47:00;97850.09;;;19.03;55.24
14790;BME280;7486;51.010;10.366;2023-05-22T08:49:49;98046.28;;;20.63;56.40
14790;BME280;7486;51.010;10.366;2023-05-22T08:53:00;98099.56;;;21.31;55.55
14790;BME280;7486;51.010;10.366;2023-05-22T08:55:47;97984.31;;;20.79;54.25
14790;BME280;7486;51.010;10.366;2023-05-22T08:58:36;97990.41;;;20.99;50.84
14790;BME280;7486;51.010;10.366;2023-05-22T09:01:22;97928.66;;;20.69;52.66
14790;BME280;7486;51.010;10.366;2023-05-22T09:04:08;97994.97;;;20.99;56.85
14790;BME280;7486;51.010;10.366;2023-05-22T09:06:53;98059.47;;;21.63;54.18
14790;BME280;7486;51.010;10.366;2023-05-22T09:09:39;98081.78;;;21.68;52.45
14790;BME280;7486;51.010;10.366;2023-05-22T09:12:25;97944.13;;;20.92;51.88
14790;BME280;7486;51.010;10.366;2023-05-22T09:15:10;98075.19;;;21.90;52.53
14790;BME280;7486;51.010;10.366;2023-05-22T09:17:56;97870.66;;;20.87;52.76
14790;BME280;7486;51.010;10.366;2023-05-22T09:20:41;98079.00;;;22.46;49.03
14790;BME280;7486;51.010;10.366;2023-05-22T09:23:28;98076.09;;;22.61;50.66
14790;BME280;7486;51.010;10.366;2023-05-22T09:26:14;98008.09;;;22.36;53.51
14790;BME280;7486;51.010;10.366;2023-05-22T09:29:00;97983.63;;;22.03;50.12
14790;BME280;7486;51.010;10.366;2023-05-22T09:31:45;97992.47;;;21.80;48.55
14790;BME280;7486;51.010;10.366;2023-05-22T09:34:34;97903.91;;;21.06;49.60
14790;BME280;7486;51.010;10.366;2023-05-22T09:37:19;97636.94;;;19.68;51.87
14790;BME280;7486;51.010;10.366;2023-05-22T09:40:06;98066.13;;;22.62;52.13
14790;BME280;7486;51.010;10.366;2023-05-22T09:42:51;97897.31;;;21.80;51.22
14790;BME280;7486;51.010;10.366;2023-05-22T09:45:37;97966.50;;;22.60;48.62
14790;BME280;7486;51.010;10.366;2023-05-22T09:48:23;98006.84;;;22.28;49.45
14790;BME280;7486;51.010;10.366;2023-05-22T09:51:09;98007.63;;;22.05;49.16
14790;BME280;7486;51.010;10.366;2023-05-22T09:54:02;97902.41;;;21.29;49.69
14790;BME280;7486;51.010;10.366;2023-05-22T09:56:48;98008.19;;;22.02;50.34
14790;BME280;7486;51.010;10.366;2023-05-22T09:59:35;97826.59;;;20.78;50.69
14790;BME280;7486;51.010;10.366;2023-05-22T10:02:25;97966.88;;;21.49;49.36
14790;BME280;7486;51.010;10.366;2023-05-22T10:05:12;97993.72;;;21.59;52.04
14790;BME280;7486;51.010;10.366;2023-05-22T10:08:06;97870.28;;;20.64;52.05
14790;BME280;7486;51.010;10.366;2023-05-22T10:10:53;97764.03;;;20.18;51.85
14790;BME280;7486;51.010;10.366;2023-05-22T10:13:40;98056.56;;;22.69;51.96
14790;BME280;7486;51.010;10.366;2023-05-22T10:16:26;97999.13;;;22.64;48.43
14790;BME280;7486;51.010;10.366;2023-05-22T10:19:11;97981.03;;;22.64;48.49
14790;BME280;7486;51.010;10.366;2023-05-22T10:21:59;98025.88;;;22.84;50.52
14790;BME280;7486;51.010;10.366;2023-05-22T10:24:45;97860.66;;;22.02;48.37
14790;BME280;7486;51.010;10.366;2023-05-22T10:27:32;98025.38;;;22.58;48.71
14790;BME280;7486;51.010;10.366;2023-05-22T10:33:47;98041.59;;;23.01;49.13
14790;BME280;7486;51.010;10.366;2023-05-22T10:40:09;97981.50;;;22.90;48.89
14790;BME280;7486;51.010;10.366;2023-05-22T10:42:57;98007.50;;;23.05;47.68
14790;BME280;7486;51.010;10.366;2023-05-22T10:45:45;98032.47;;;22.97;48.84
14790;BME280;7486;51.010;10.366;2023-05-22T10:48:42;98036.38;;;22.86;48.98
14790;BME280;7486;51.010;10.366;2023-05-22T10:51:28;97959.56;;;22.54;52.33
14790;BME280;7486;51.010;10.366;2023-05-22T10:54:13;98007.44;;;23.10;49.36
14790;BME280;7486;51.010;10.366;2023-05-22T10:57:15;97979.66;;;22.86;49.62
14790;BME280;7486;51.010;10.366;2023-05-22T11:00:09;98028.69;;;23.35;46.77
14790;BME280;7486;51.010;10.366;2023-05-22T11:03:03;98007.72;;;23.27;49.07
14790;BME280;7486;51.010;10.366;2023-05-22T11:06:02;98005.38;;;23.02;46.06
14790;BME280;7486;51.010;10.366;2023-05-22T11:08:48;97909.56;;;22.38;47.64
14790;BME280;7486;51.010;10.366;2023-05-22T11:11:34;97915.38;;;22.50;46.58
14790;BME280;7486;51.010;10.366;2023-05-22T11:14:19;97980.19;;;22.88;47.06
14790;BME280;7486;51.010;10.366;2023-05-22T11:17:05;97914.88;;;22.43;48.98
14790;BME280;7486;51.010;10.366;2023-05-22T11:20:20;98030.78;;;23.57;47.27
14790;BME280;7486;51.010;10.366;2023-05-22T11:23:09;97976.59;;;22.92;47.08
14790;BME280;7486;51.010;10.366;2023-05-22T11:25:55;97967.97;;;22.71;49.08
14790;BME280;7486;51.010;10.366;2023-05-22T11:28:40;97915.69;;;22.25;46.82
14790;BME280;7486;51.010;10.366;2023-05-22T11:31:28;97994.13;;;22.95;47.06
14790;BME280;7486;51.010;10.366;2023-05-22T11:34:14;97998.38;;;23.01;48.91
14790;BME280;7486;51.010;10.366;2023-05-22T11:37:00;97946.25;;;22.82;49.45
14790;BME280;7486;51.010;10.366;2023-05-22T11:39:56;97995.09;;;23.04;49.34
14790;BME280;7486;51.010;10.366;2023-05-22T11:42:41;98013.31;;;22.75;48.02
14790;BME280;7486;51.010;10.366;2023-05-22T11:45:27;98022.97;;;22.99;49.62
14790;BME280;7486;51.010;10.366;2023-05-22T11:48:12;97800.00;;;22.00;49.04
14790;BME280;7486;51.010;10.366;2023-05-22T11:50:59;97864.22;;;22.78;49.82
14790;BME280;7486;51.010;10.366;2023-05-22T11:53:46;98005.94;;;23.87;48.82
14790;BME280;7486;51.010;10.366;2023-05-22T11:56:32;98003.84;;;23.98;48.38
14790;BME280;7486;51.010;10.366;2023-05-22T11:59:20;97987.13;;;23.63;47.12
14790;BME280;7486;51.010;10.366;2023-05-22T12:02:06;97972.19;;;23.52;46.68
14790;BME280;7486;51.010;10.366;2023-05-22T12:04:55;97871.41;;;23.01;47.06
14790;BME280;7486;51.010;10.366;2023-05-22T12:07:41;97860.75;;;23.09;47.16
14790;BME280;7486;51.010;10.366;2023-05-22T12:10:27;97928.69;;;23.67;46.44
14790;BME280;7486;51.010;10.366;2023-05-22T12:13:13;97987.72;;;23.93;47.71
14790;BME280;7486;51.010;10.366;2023-05-22T12:15:59;97865.34;;;23.09;45.16
14790;BME280;7486;51.010;10.366;2023-05-22T12:18:45;97988.84;;;23.59;44.29
14790;BME280;7486;51.010;10.366;2023-05-22T12:21:31;97875.56;;;23.12;44.55
14790;BME280;7486;51.010;10.366;2023-05-22T12:24:16;97882.13;;;23.25;46.96
14790;BME280;7486;51.010;10.366;2023-05-22T12:27:07;97798.06;;;23.26;48.30
14790;BME280;7486;51.010;10.366;2023-05-22T12:29:54;97899.88;;;24.17;46.96
14790;BME280;7486;51.010;10.366;2023-05-22T12:32:40;97947.22;;;24.69;43.85
14790;BME280;7486;51.010;10.366;2023-05-22T12:35:27;97904.16;;;23.91;45.58
14790;BME280;7486;51.010;10.366;2023-05-22T12:38:13;97928.84;;;24.17;46.08
14790;BME280;7486;51.010;10.366;2023-05-22T12:40:58;97946.16;;;24.43;47.36
14790;BME280;7486;51.010;10.366;2023-05-22T12:43:44;97939.94;;;24.02;45.80
14790;BME280;7486;51.010;10.366;2023-05-22T12:46:30;97875.63;;;23.39;46.78
14790;BME280;7486;51.010;10.366;2023-05-22T12:49:15;97962.19;;;23.99;44.40
14790;BME280;7486;51.010;10.366;2023-05-22T12:52:01;97818.13;;;23.06;45.41
14790;BME280;7486;51.010;10.366;2023-05-22T12:54:47;97929.41;;;23.73;45.69
14790;BME280;7486;51.010;10.366;2023-05-22T12:57:32;97671.66;;;22.17;46.87
14790;BME280;7486;51.010;10.366;2023-05-22T13:00:18;97955.69;;;24.13;46.40
14790;BME280;7486;51.010;10.366;2023-05-22T13:03:04;97773.16;;;22.83;45.60
14790;BME280;7486;51.010;10.366;2023-05-22T13:05:50;97816.38;;;23.29;42.30
14790;BME280;7486;51.010;10.366;2023-05-22T13:08:36;97713.16;;;22.54;42.10
14790;BME280;7486;51.010;10.366;2023-05-22T13:11:21;97746.34;;;22.54;44.39
14790;BME280;7486;51.010;10.366;2023-05-22T13:14:07;97673.09;;;22.29;45.06
14790;BME280;7486;51.010;10.366;2023-05-22T13:16:52;97857.00;;;23.24;43.29
14790;BME280;7486;51.010;10.366;2023-05-22T13:19:38;97801.94;;;23.06;42.08
14790;BME280;7486;51.010;10.366;2023-05-22T13:22:24;97942.75;;;23.97;37.85
14790;BME280;7486;51.010;10.366;2023-05-22T13:25:09;97921.81;;;24.02;41.85
14790;BME280;7486;51.010;10.366;2023-05-22T13:27:57;97862.38;;;23.84;44.07
14790;BME280;7486;51.010;10.366;2023-05-22T13:30:43;97743.53;;;23.24;43.09
14790;BME280;7486;51.010;10.366;2023-05-22T13:33:28;97891.84;;;24.26;44.57
14790;BME280;7486;51.010;10.366;2023-05-22T13:36:16;97903.56;;;24.35;40.27
14790;BME280;7486;51.010;10.366;2023-05-22T13:39:02;97931.75;;;24.48;41.59
14790;BME280;7486;51.010;10.366;2023-05-22T13:41:48;97867.06;;;24.19;42.80
14790;BME280;7486;51.010;10.366;2023-05-22T13:44:36;97789.66;;;23.96;41.98
14790;BME280;7486;51.010;10.366;2023-05-22T13:47:21;97564.84;;;22.62;43.67
14790;BME280;7486;51.010;10.366;2023-05-22T13:50:07;97868.66;;;25.05;42.09
14790;BME280;7486;51.010;10.366;2023-05-22T13:52:53;97742.34;;;24.43;39.90
14790;BME280;7486;51.010;10.366;2023-05-22T13:55:38;97860.66;;;25.00;39.53
14790;BME280;7486;51.010;10.366;2023-05-22T13:58:24;97850.28;;;25.25;40.36
14790;BME280;7486;51.010;10.366;2023-05-22T14:01:09;97850.69;;;25.09;38.71
14790;BME280;7486;51.010;10.366;2023-05-22T14:03:54;97911.28;;;25.58;39.80
14790;BME280;7486;51.010;10.366;2023-05-22T14:06:41;97818.03;;;25.14;39.13
14790;BME280;7486;51.010;10.366;2023-05-22T14:09:27;97878.75;;;25.58;37.01
14790;BME280;7486;51.010;10.366;2023-05-22T14:12:12;97830.91;;;25.40;40.47
14790;BME280;7486;51.010;10.366;2023-05-22T14:14:58;97683.31;;;24.53;41.08
14790;BME280;7486;51.010;10.366;2023-05-22T14:17:45;97749.88;;;24.99;42.00
14790;BME280;7486;51.010;10.366;2023-05-22T14:20:31;97870.09;;;25.95;40.94
14790;BME280;7486;51.010;10.366;2023-05-22T14:23:16;97654.06;;;24.55;40.89
14790;BME280;7486;51.010;10.366;2023-05-22T14:26:02;97903.41;;;26.18;41.60
14790;BME280;7486;51.010;10.366;2023-05-22T14:28:47;97672.81;;;24.83;38.37
14790;BME280;7486;51.010;10.366;2023-05-22T14:31:46;97888.13;;;25.91;38.35
14790;BME280;7486;51.010;10.366;2023-05-22T14:34:35;97878.53;;;25.85;39.43
14790;BME280;7486;51.010;10.366;2023-05-22T14:37:21;97694.53;;;24.60;40.79
14790;BME280;7486;51.010;10.366;2023-05-22T14:40:07;97821.78;;;25.27;39.92
14790;BME280;7486;51.010;10.366;2023-05-22T14:42:53;97806.75;;;25.21;38.05
14790;BME280;7486;51.010;10.366;2023-05-22T14:45:39;97723.31;;;24.56;40.12
14790;BME280;7486;51.010;10.366;2023-05-22T14:48:25;97717.66;;;24.66;41.04
14790;BME280;7486;51.010;10.366;2023-05-22T14:51:11;97630.66;;;24.15;41.99
14790;BME280;7486;51.010;10.366;2023-05-22T14:53:56;97771.56;;;24.99;40.41
14790;BME280;7486;51.010;10.366;2023-05-22T14:56:42;97818.03;;;25.14;41.86
14790;BME280;7486;51.010;10.366;2023-05-22T14:59:27;97794.31;;;25.20;42.55
14790;BME280;7486;51.010;10.366;2023-05-22T15:02:13;97699.22;;;24.46;42.14
14790;BME280;7486;51.010;10.366;2023-05-22T15:04:58;97621.16;;;24.17;43.25
14790;BME280;7486;51.010;10.366;2023-05-22T15:07:44;97811.50;;;25.86;43.08
14790;BME280;7486;51.010;10.366;2023-05-22T15:10:32;97762.00;;;25.32;42.33
14790;BME280;7486;51.010;10.366;2023-05-22T15:13:17;97690.56;;;24.89;43.23
14790;BME280;7486;51.010;10.366;2023-05-22T15:16:03;97761.91;;;25.15;41.35